sensor_id;sensor_type;location;lat;lon;timestamp;pressure;altitude;pressure_sealevel;temperature
60936;BMP280;46804;51.786;19.520;2023-06-14T00:00:16;157543.19;;;13.12
60936;BMP280;46804;51.786;19.520;2023-06-14T00:04:37;157530.34;;;13.07
60936;BMP280;46804;51.786;19.520;2023-06-14T00:08:39;157514.91;;;13.01
60936;BMP280;46804;51.786;19.520;2023-06-14T00:12:41;157487.88;;;12.91
60936;BMP280;46804;51.786;19.520;2023-06-14T00:16:42;157490.50;;;12.92
60936;BMP280;46804;51.786;19.520;2023-06-14T00:20:43;157487.88;;;12.91
60936;BMP280;46804;51.786;19.520;2023-06-14T00:24:44;157513.63;;;13.01
60936;BMP280;46804;51.786;19.520;2023-06-14T00:28:45;157525.19;;;13.05
60936;BMP280;46804;51.786;19.520;2023-06-14T00:32:46;157467.28;;;12.83
60936;BMP280;46804;51.786;19.520;2023-06-14T00:36:47;157489.16;;;12.91
60936;BMP280;46804;51.786;19.520;2023-06-14T00:40:48;157444.09;;;12.74
60936;BMP280;46804;51.786;19.520;2023-06-14T00:44:48;157481.47;;;12.89
60936;BMP280;46804;51.786;19.520;2023-06-14T00:48:49;157473.75;;;12.86
60936;BMP280;46804;51.786;19.520;2023-06-14T00:52:50;157473.75;;;12.86
60936;BMP280;46804;51.786;19.520;2023-06-14T00:56:51;157509.75;;;12.99
60936;BMP280;46804;51.786;19.520;2023-06-14T01:00:52;157475.03;;;12.86
60936;BMP280;46804;51.786;19.520;2023-06-14T01:04:53;157472.44;;;12.85
60936;BMP280;46804;51.786;19.520;2023-06-14T01:09:14;157496.91;;;12.94
60936;BMP280;46804;51.786;19.520;2023-06-14T01:13:24;157489.16;;;12.91
60936;BMP280;46804;51.786;19.520;2023-06-14T01:17:28;157478.91;;;12.88
60936;BMP280;46804;51.786;19.520;2023-06-14T01:21:32;157494.31;;;12.93
60936;BMP280;46804;51.786;19.520;2023-06-14T01:25:37;157495.56;;;12.94
60936;BMP280;46804;51.786;19.520;2023-06-14T01:29:40;157493.03;;;12.93
60936;BMP280;46804;51.786;19.520;2023-06-14T01:33:46;157512.28;;;13.00
60936;BMP280;46804;51.786;19.520;2023-06-14T01:37:48;157478.91;;;12.88
60936;BMP280;46804;51.786;19.520;2023-06-14T01:41:49;157468.63;;;12.84
60936;BMP280;46804;51.786;19.520;2023-06-14T01:45:53;157455.72;;;12.79
60936;BMP280;46804;51.786;19.520;2023-06-14T01:49:54;157447.97;;;12.76
60936;BMP280;46804;51.786;19.520;2023-06-14T01:53:55;157431.28;;;12.69
60936;BMP280;46804;51.786;19.520;2023-06-14T01:57:56;157418.44;;;12.64
60936;BMP280;46804;51.786;19.520;2023-06-14T02:01:56;157420.97;;;12.65
60936;BMP280;46804;51.786;19.520;2023-06-14T02:05:57;157417.16;;;12.64
60936;BMP280;46804;51.786;19.520;2023-06-14T02:09:57;157418.44;;;12.64
60936;BMP280;46804;51.786;19.520;2023-06-14T02:13:59;157451.91;;;12.77
60936;BMP280;46804;51.786;19.520;2023-06-14T02:18:04;157418.44;;;12.64
60936;BMP280;46804;51.786;19.520;2023-06-14T02:22:05;157410.75;;;12.61
60936;BMP280;46804;51.786;19.520;2023-06-14T02:26:06;157394.03;;;12.55
60936;BMP280;46804;51.786;19.520;2023-06-14T02:30:07;157400.44;;;12.57
60936;BMP280;46804;51.786;19.520;2023-06-14T02:34:08;157401.72;;;12.58
60936;BMP280;46804;51.786;19.520;2023-06-14T02:38:09;157420.97;;;12.65
60936;BMP280;46804;51.786;19.520;2023-06-14T02:42:10;157450.59;;;12.77
60936;BMP280;46804;51.786;19.520;2023-06-14T02:46:10;157435.13;;;12.71
60936;BMP280;46804;51.786;19.520;2023-06-14T02:50:11;157450.59;;;12.77
60936;BMP280;46804;51.786;19.520;2023-06-14T02:54:12;157435.13;;;12.71
60936;BMP280;46804;51.786;19.520;2023-06-14T02:58:13;157399.13;;;12.57
60936;BMP280;46804;51.786;19.520;2023-06-14T03:02:13;157414.56;;;12.63
60936;BMP280;46804;51.786;19.520;2023-06-14T03:06:14;157406.88;;;12.60
60936;BMP280;46804;51.786;19.520;2023-06-14T03:10:17;157403.00;;;12.58
60936;BMP280;46804;51.786;19.520;2023-06-14T03:14:18;157391.44;;;12.54
60936;BMP280;46804;51.786;19.520;2023-06-14T03:18:19;157418.44;;;12.64
60936;BMP280;46804;51.786;19.520;2023-06-14T03:22:22;157430.00;;;12.69
60936;BMP280;46804;51.786;19.520;2023-06-14T03:26:23;157417.16;;;12.64
60936;BMP280;46804;51.786;19.520;2023-06-14T03:30:26;157445.44;;;12.75
60936;BMP280;46804;51.786;19.520;2023-06-14T03:34:26;157458.31;;;12.80
60936;BMP280;46804;51.786;19.520;2023-06-14T03:38:27;157463.47;;;12.82
60936;BMP280;46804;51.786;19.520;2023-06-14T03:42:28;157460.88;;;12.81
60936;BMP280;46804;51.786;19.520;2023-06-14T03:46:29;157480.19;;;12.88
60936;BMP280;46804;51.786;19.520;2023-06-14T03:50:29;157476.31;;;12.87
60936;BMP280;46804;51.786;19.520;2023-06-14T03:54:30;157473.75;;;12.86
60936;BMP280;46804;51.786;19.520;2023-06-14T03:58:33;157496.91;;;12.94
60936;BMP280;46804;51.786;19.520;2023-06-14T04:02:33;157478.91;;;12.88
60936;BMP280;46804;51.786;19.520;2023-06-14T04:06:34;157504.59;;;12.97
60936;BMP280;46804;51.786;19.520;2023-06-14T04:10:35;157512.28;;;13.00
60936;BMP280;46804;51.786;19.520;2023-06-14T04:14:36;157512.28;;;13.00
60936;BMP280;46804;51.786;19.520;2023-06-14T04:18:37;157526.47;;;13.06
60936;BMP280;46804;51.786;19.520;2023-06-14T04:22:37;157538.03;;;13.10
60936;BMP280;46804;51.786;19.520;2023-06-14T04:26:39;157601.03;;;13.34
60936;BMP280;46804;51.786;19.520;2023-06-14T04:30:42;157612.59;;;13.39
60936;BMP280;46804;51.786;19.520;2023-06-14T04:34:42;157599.75;;;13.34
60936;BMP280;46804;51.786;19.520;2023-06-14T04:38:43;157613.88;;;13.39
60936;BMP280;46804;51.786;19.520;2023-06-14T04:42:45;157661.50;;;13.57
60936;BMP280;46804;51.786;19.520;2023-06-14T04:46:46;157697.50;;;13.71
60936;BMP280;46804;51.786;19.520;2023-06-14T04:50:48;157711.66;;;13.77
60936;BMP280;46804;51.786;19.520;2023-06-14T04:54:48;157700.03;;;13.72
60936;BMP280;46804;51.786;19.520;2023-06-14T04:58:49;157719.38;;;13.80
60936;BMP280;46804;51.786;19.520;2023-06-14T05:02:50;157743.78;;;13.89
60936;BMP280;46804;51.786;19.520;2023-06-14T05:06:51;157785.00;;;14.05
60936;BMP280;46804;51.786;19.520;2023-06-14T05:10:55;157818.47;;;14.18
60936;BMP280;46804;51.786;19.520;2023-06-14T05:14:56;157817.19;;;14.17
60936;BMP280;46804;51.786;19.520;2023-06-14T05:18:59;157854.53;;;14.31
60936;BMP280;46804;51.786;19.520;2023-06-14T05:22:59;157846.75;;;14.28
60936;BMP280;46804;51.786;19.520;2023-06-14T05:27:01;157851.91;;;14.30
60936;BMP280;46804;51.786;19.520;2023-06-14T05:31:02;157882.84;;;14.42
60936;BMP280;46804;51.786;19.520;2023-06-14T05:35:03;157894.41;;;14.47
60936;BMP280;46804;51.786;19.520;2023-06-14T05:39:04;157903.38;;;14.50
60936;BMP280;46804;51.786;19.520;2023-06-14T05:43:06;157942.00;;;14.65
60936;BMP280;46804;51.786;19.520;2023-06-14T05:47:07;157895.69;;;14.47
60936;BMP280;46804;51.786;19.520;2023-06-14T05:51:07;157972.94;;;14.77
60936;BMP280;46804;51.786;19.520;2023-06-14T05:55:09;158030.84;;;14.99
60936;BMP280;46804;51.786;19.520;2023-06-14T05:59:12;158086.22;;;15.20
60936;BMP280;46804;51.786;19.520;2023-06-14T06:03:12;158105.56;;;15.28
60936;BMP280;46804;51.786;19.520;2023-06-14T06:07:13;158130.03;;;15.37
60936;BMP280;46804;51.786;19.520;2023-06-14T06:11:14;158136.47;;;15.39
60936;BMP280;46804;51.786;19.520;2023-06-14T06:15:15;158162.25;;;15.49
60936;BMP280;46804;51.786;19.520;2023-06-14T06:19:16;158155.81;;;15.47
60936;BMP280;46804;51.786;19.520;2023-06-14T06:23:17;158215.03;;;15.69
60936;BMP280;46804;51.786;19.520;2023-06-14T06:27:18;158240.81;;;15.79
60936;BMP280;46804;51.786;19.520;2023-06-14T06:31:19;158226.63;;;15.74
60936;BMP280;46804;51.786;19.520;2023-06-14T06:35:20;158297.50;;;16.01
60936;BMP280;46804;51.786;19.520;2023-06-14T06:39:21;158275.59;;;15.93
60936;BMP280;46804;51.786;19.520;2023-06-14T06:43:22;158282.03;;;15.95
60936;BMP280;46804;51.786;19.520;2023-06-14T06:47:23;158269.16;;;15.90
60936;BMP280;46804;51.786;19.520;2023-06-14T06:51:23;158284.59;;;15.96
60936;BMP280;46804;51.786;19.520;2023-06-14T06:55:24;158266.56;;;15.89
60936;BMP280;46804;51.786;19.520;2023-06-14T06:59:25;158288.47;;;15.97
60936;BMP280;46804;51.786;19.520;2023-06-14T07:03:25;158332.28;;;16.14
60936;BMP280;46804;51.786;19.520;2023-06-14T07:07:27;158443.16;;;16.57
60936;BMP280;46804;51.786;19.520;2023-06-14T07:11:27;158516.63;;;16.85
60936;BMP280;46804;51.786;19.520;2023-06-14T07:15:28;158623.69;;;17.26
60936;BMP280;46804;51.786;19.520;2023-06-14T07:19:29;158681.72;;;17.48
60936;BMP280;46804;51.786;19.520;2023-06-14T07:23:31;158729.47;;;17.66
60936;BMP280;46804;51.786;19.520;2023-06-14T07:27:31;158858.50;;;18.15
60936;BMP280;46804;51.786;19.520;2023-06-14T07:31:32;158988.84;;;18.65
60936;BMP280;46804;51.786;19.520;2023-06-14T07:35:33;159090.88;;;19.04
60936;BMP280;46804;51.786;19.520;2023-06-14T07:39:33;159169.63;;;19.34
60936;BMP280;46804;51.786;19.520;2023-06-14T07:43:34;159221.28;;;19.54
60936;BMP280;46804;51.786;19.520;2023-06-14T07:47:35;159292.34;;;19.81
60936;BMP280;46804;51.786;19.520;2023-06-14T07:51:36;159371.16;;;20.11
60936;BMP280;46804;51.786;19.520;2023-06-14T07:55:37;159450.00;;;20.41
60936;BMP280;46804;51.786;19.520;2023-06-14T07:59:39;159544.38;;;20.77
60936;BMP280;46804;51.786;19.520;2023-06-14T08:03:39;159545.69;;;20.77
60936;BMP280;46804;51.786;19.520;2023-06-14T08:07:40;159614.19;;;21.04
60936;BMP280;46804;51.786;19.520;2023-06-14T08:11:42;159703.44;;;21.38
60936;BMP280;46804;51.786;19.520;2023-06-14T08:15:43;159781.03;;;21.67
60936;BMP280;46804;51.786;19.520;2023-06-14T08:19:45;159759.03;;;21.59
60936;BMP280;46804;51.786;19.520;2023-06-14T08:23:46;159703.44;;;21.38
60936;BMP280;46804;51.786;19.520;2023-06-14T08:27:46;159672.38;;;21.26
60936;BMP280;46804;51.786;19.520;2023-06-14T08:31:47;159606.41;;;21.01
60936;BMP280;46804;51.786;19.520;2023-06-14T08:35:48;159652.94;;;21.18
60936;BMP280;46804;51.786;19.520;2023-06-14T08:39:49;159716.41;;;21.43
60936;BMP280;46804;51.786;19.520;2023-06-14T08:43:51;159596.09;;;20.97
60936;BMP280;46804;51.786;19.520;2023-06-14T08:47:52;159624.56;;;21.08
60936;BMP280;46804;51.786;19.520;2023-06-14T08:52:00;159649.09;;;21.17
60936;BMP280;46804;51.786;19.520;2023-06-14T08:56:02;159689.19;;;21.32
60936;BMP280;46804;51.786;19.520;2023-06-14T09:00:05;159642.63;;;21.14
60936;BMP280;46804;51.786;19.520;2023-06-14T09:04:13;159585.75;;;20.93
60936;BMP280;46804;51.786;19.520;2023-06-14T09:08:14;159568.94;;;20.86
60936;BMP280;46804;51.786;19.520;2023-06-14T09:12:15;159606.41;;;21.01
60936;BMP280;46804;51.786;19.520;2023-06-14T09:16:16;159593.50;;;20.96
60936;BMP280;46804;51.786;19.520;2023-06-14T09:20:17;159672.38;;;21.26
60936;BMP280;46804;51.786;19.520;2023-06-14T09:24:20;159583.13;;;20.92
60936;BMP280;46804;51.786;19.520;2023-06-14T09:28:26;159641.31;;;21.14
60936;BMP280;46804;51.786;19.520;2023-06-14T09:32:27;159664.63;;;21.23
60936;BMP280;46804;51.786;19.520;2023-06-14T09:36:31;159690.47;;;21.33
60936;BMP280;46804;51.786;19.520;2023-06-14T09:40:35;159722.84;;;21.45
60936;BMP280;46804;51.786;19.520;2023-06-14T09:44:39;159725.41;;;21.46
60936;BMP280;46804;51.786;19.520;2023-06-14T09:48:40;159742.22;;;21.52
60936;BMP280;46804;51.786;19.520;2023-06-14T09:52:44;159786.22;;;21.69
60936;BMP280;46804;51.786;19.520;2023-06-14T09:56:47;159748.69;;;21.55
60936;BMP280;46804;51.786;19.520;2023-06-14T10:00:50;159916.91;;;22.19
60936;BMP280;46804;51.786;19.520;2023-06-14T10:04:56;159929.81;;;22.24
60936;BMP280;46804;51.786;19.520;2023-06-14T10:08:59;159909.09;;;22.16
60936;BMP280;46804;51.786;19.520;2023-06-14T10:13:00;159828.88;;;21.85
60936;BMP280;46804;51.786;19.520;2023-06-14T10:17:03;159749.97;;;21.55
60936;BMP280;46804;51.786;19.520;2023-06-14T10:21:16;159927.25;;;22.23
60936;BMP280;46804;51.786;19.520;2023-06-14T10:25:29;159884.50;;;22.07
60936;BMP280;46804;51.786;19.520;2023-06-14T10:29:31;159884.50;;;22.07
60936;BMP280;46804;51.786;19.520;2023-06-14T10:33:33;159940.19;;;22.28
60936;BMP280;46804;51.786;19.520;2023-06-14T10:37:34;159997.13;;;22.49
60936;BMP280;46804;51.786;19.520;2023-06-14T10:41:39;159999.69;;;22.50
60936;BMP280;46804;51.786;19.520;2023-06-14T10:50:17;159868.97;;;22.01
60936;BMP280;46804;51.786;19.520;2023-06-14T10:54:20;159915.56;;;22.18
60936;BMP280;46804;51.786;19.520;2023-06-14T10:58:21;159852.16;;;21.94
60936;BMP280;46804;51.786;19.520;2023-06-14T11:06:22;159808.22;;;21.78
60936;BMP280;46804;51.786;19.520;2023-06-14T11:10:39;159818.50;;;21.81
60936;BMP280;46804;51.786;19.520;2023-06-14T11:14:40;159841.84;;;21.90
60936;BMP280;46804;51.786;19.520;2023-06-14T11:18:42;159735.78;;;21.50
60936;BMP280;46804;51.786;19.520;2023-06-14T11:22:45;159725.41;;;21.46
60936;BMP280;46804;51.786;19.520;2023-06-14T11:26:47;159834.03;;;21.87
60936;BMP280;46804;51.786;19.520;2023-06-14T11:31:01;159870.28;;;22.01
60936;BMP280;46804;51.786;19.520;2023-06-14T11:35:05;159979.00;;;22.43
60936;BMP280;46804;51.786;19.520;2023-06-14T11:39:06;159815.94;;;21.80
60936;BMP280;46804;51.786;19.520;2023-06-14T11:43:11;159924.66;;;22.22
60936;BMP280;46804;51.786;19.520;2023-06-14T11:47:13;159977.69;;;22.42
60936;BMP280;46804;51.786;19.520;2023-06-14T11:51:14;160079.91;;;22.81
60936;BMP280;46804;51.786;19.520;2023-06-14T11:55:15;160147.28;;;23.07
60936;BMP280;46804;51.786;19.520;2023-06-14T11:59:16;160240.47;;;23.42
60936;BMP280;46804;51.786;19.520;2023-06-14T12:03:16;160381.69;;;23.96
60936;BMP280;46804;51.786;19.520;2023-06-14T12:07:18;160429.56;;;24.14
60936;BMP280;46804;51.786;19.520;2023-06-14T12:11:20;160455.56;;;24.24
60936;BMP280;46804;51.786;19.520;2023-06-14T12:15:21;160481.44;;;24.34
60936;BMP280;46804;51.786;19.520;2023-06-14T12:19:25;160491.81;;;24.38
60936;BMP280;46804;51.786;19.520;2023-06-14T12:23:26;160506.09;;;24.43
60936;BMP280;46804;51.786;19.520;2023-06-14T12:27:27;160010.03;;;22.54
60936;BMP280;46804;51.786;19.520;2023-06-14T12:31:29;160191.31;;;23.23
60936;BMP280;46804;51.786;19.520;2023-06-14T12:35:30;160344.09;;;23.82
60936;BMP280;46804;51.786;19.520;2023-06-14T12:39:30;160324.69;;;23.74
60936;BMP280;46804;51.786;19.520;2023-06-14T12:43:35;160034.63;;;22.64
60936;BMP280;46804;51.786;19.520;2023-06-14T12:47:36;159742.22;;;21.52
60936;BMP280;46804;51.786;19.520;2023-06-14T12:51:37;159609.03;;;21.02
60936;BMP280;46804;51.786;19.520;2023-06-14T12:55:38;159408.66;;;20.25
60936;BMP280;46804;51.786;19.520;2023-06-14T12:59:39;159143.78;;;19.24
60936;BMP280;46804;51.786;19.520;2023-06-14T13:03:40;158955.28;;;18.52
60936;BMP280;46804;51.786;19.520;2023-06-14T13:07:40;158944.94;;;18.48
60936;BMP280;46804;51.786;19.520;2023-06-14T13:11:42;158877.88;;;18.23
60936;BMP280;46804;51.786;19.520;2023-06-14T13:15:46;158835.28;;;18.06
60936;BMP280;46804;51.786;19.520;2023-06-14T13:19:47;158765.56;;;17.80
60936;BMP280;46804;51.786;19.520;2023-06-14T13:23:48;158743.63;;;17.71
60936;BMP280;46804;51.786;19.520;2023-06-14T13:27:48;158666.22;;;17.42
60936;BMP280;46804;51.786;19.520;2023-06-14T13:31:49;158661.06;;;17.40
60936;BMP280;46804;51.786;19.520;2023-06-14T13:35:50;158698.50;;;17.54
60936;BMP280;46804;51.786;19.520;2023-06-14T13:39:53;158768.13;;;17.81
60936;BMP280;46804;51.786;19.520;2023-06-14T13:43:53;158757.78;;;17.77
60936;BMP280;46804;51.786;19.520;2023-06-14T13:47:55;158782.34;;;17.86
60936;BMP280;46804;51.786;19.520;2023-06-14T13:51:55;158812.00;;;17.98
60936;BMP280;46804;51.786;19.520;2023-06-14T13:55:56;158844.31;;;18.10
60936;BMP280;46804;51.786;19.520;2023-06-14T13:59:57;158721.69;;;17.63
60936;BMP280;46804;51.786;19.520;2023-06-14T14:04:01;158710.09;;;17.59
60936;BMP280;46804;51.786;19.520;2023-06-14T14:08:03;158594.06;;;17.14
60936;BMP280;46804;51.786;19.520;2023-06-14T14:12:05;158652.06;;;17.36
60936;BMP280;46804;51.786;19.520;2023-06-14T14:16:06;158631.41;;;17.29
60936;BMP280;46804;51.786;19.520;2023-06-14T14:20:07;158653.34;;;17.37
60936;BMP280;46804;51.786;19.520;2023-06-14T14:24:08;158667.56;;;17.42
60936;BMP280;46804;51.786;19.520;2023-06-14T14:28:08;158661.06;;;17.40
60936;BMP280;46804;51.786;19.520;2023-06-14T14:32:09;158551.44;;;16.98
60936;BMP280;46804;51.786;19.520;2023-06-14T14:36:14;158539.81;;;16.94
60936;BMP280;46804;51.786;19.520;2023-06-14T14:40:15;158594.06;;;17.14
60936;BMP280;46804;51.786;19.520;2023-06-14T14:44:15;158595.34;;;17.15
60936;BMP280;46804;51.786;19.520;2023-06-14T14:48:16;158621.09;;;17.25
60936;BMP280;46804;51.786;19.520;2023-06-14T14:52:17;158618.53;;;17.24
60936;BMP280;46804;51.786;19.520;2023-06-14T14:56:18;158600.50;;;17.17
60936;BMP280;46804;51.786;19.520;2023-06-14T15:00:19;158635.31;;;17.30
60936;BMP280;46804;51.786;19.520;2023-06-14T15:04:19;158681.72;;;17.48
60936;BMP280;46804;51.786;19.520;2023-06-14T15:08:20;158686.88;;;17.50
60936;BMP280;46804;51.786;19.520;2023-06-14T15:12:21;158603.03;;;17.18
60936;BMP280;46804;51.786;19.520;2023-06-14T15:16:23;158545.00;;;16.96
60936;BMP280;46804;51.786;19.520;2023-06-14T15:20:24;158526.94;;;16.89
60936;BMP280;46804;51.786;19.520;2023-06-14T15:24:25;158493.44;;;16.76
60936;BMP280;46804;51.786;19.520;2023-06-14T15:28:26;158516.63;;;16.85
60936;BMP280;46804;51.786;19.520;2023-06-14T15:32:29;158458.63;;;16.63
60936;BMP280;46804;51.786;19.520;2023-06-14T15:36:29;158515.34;;;16.84
60936;BMP280;46804;51.786;19.520;2023-06-14T15:40:30;158521.78;;;16.87
60936;BMP280;46804;51.786;19.520;2023-06-14T15:44:31;158511.47;;;16.83
60936;BMP280;46804;51.786;19.520;2023-06-14T15:48:32;158516.63;;;16.85
60936;BMP280;46804;51.786;19.520;2023-06-14T15:52:33;158421.22;;;16.48
60936;BMP280;46804;51.786;19.520;2023-06-14T15:56:34;158458.63;;;16.63
60936;BMP280;46804;51.786;19.520;2023-06-14T16:00:35;158457.34;;;16.62
60936;BMP280;46804;51.786;19.520;2023-06-14T16:04:35;158414.78;;;16.46
60936;BMP280;46804;51.786;19.520;2023-06-14T16:08:37;158474.13;;;16.68
60936;BMP280;46804;51.786;19.520;2023-06-14T16:12:37;158463.78;;;16.65
60936;BMP280;46804;51.786;19.520;2023-06-14T16:16:38;158435.44;;;16.54
60936;BMP280;46804;51.786;19.520;2023-06-14T16:20:39;158454.75;;;16.61
60936;BMP280;46804;51.786;19.520;2023-06-14T16:24:40;158403.19;;;16.41
60936;BMP280;46804;51.786;19.520;2023-06-14T16:28:40;158340.06;;;16.17
60936;BMP280;46804;51.786;19.520;2023-06-14T16:32:44;158341.34;;;16.18
60936;BMP280;46804;51.786;19.520;2023-06-14T16:36:45;158296.19;;;16.00
60936;BMP280;46804;51.786;19.520;2023-06-14T16:40:46;158343.94;;;16.19
60936;BMP280;46804;51.786;19.520;2023-06-14T16:44:46;158368.41;;;16.28
60936;BMP280;46804;51.786;19.520;2023-06-14T16:48:47;158358.09;;;16.24
60936;BMP280;46804;51.786;19.520;2023-06-14T16:52:48;158408.34;;;16.43
60936;BMP280;46804;51.786;19.520;2023-06-14T16:56:48;158441.88;;;16.56
60936;BMP280;46804;51.786;19.520;2023-06-14T17:00:49;158410.97;;;16.44
60936;BMP280;46804;51.786;19.520;2023-06-14T17:04:50;158333.56;;;16.15
60936;BMP280;46804;51.786;19.520;2023-06-14T17:08:50;158354.25;;;16.23
60936;BMP280;46804;51.786;19.520;2023-06-14T17:12:52;158407.06;;;16.43
60936;BMP280;46804;51.786;19.520;2023-06-14T17:16:53;158396.75;;;16.39
60936;BMP280;46804;51.786;19.520;2023-06-14T17:20:54;158426.38;;;16.50
60936;BMP280;46804;51.786;19.520;2023-06-14T17:24:55;158452.19;;;16.60
60936;BMP280;46804;51.786;19.520;2023-06-14T17:28:55;158429.00;;;16.51
60936;BMP280;46804;51.786;19.520;2023-06-14T17:32:56;158445.75;;;16.58
60936;BMP280;46804;51.786;19.520;2023-06-14T17:36:57;158369.69;;;16.29
60936;BMP280;46804;51.786;19.520;2023-06-14T17:40:58;158374.84;;;16.31
60936;BMP280;46804;51.786;19.520;2023-06-14T17:45:01;158400.63;;;16.40
60936;BMP280;46804;51.786;19.520;2023-06-14T17:49:01;158423.84;;;16.49
60936;BMP280;46804;51.786;19.520;2023-06-14T17:53:02;158449.59;;;16.59
60936;BMP280;46804;51.786;19.520;2023-06-14T17:57:04;158427.66;;;16.51
60936;BMP280;46804;51.786;19.520;2023-06-14T18:01:05;158429.00;;;16.51
60936;BMP280;46804;51.786;19.520;2023-06-14T18:05:06;158426.38;;;16.50
60936;BMP280;46804;51.786;19.520;2023-06-14T18:09:07;158389.03;;;16.36
60936;BMP280;46804;51.786;19.520;2023-06-14T18:13:07;158356.81;;;16.24
60936;BMP280;46804;51.786;19.520;2023-06-14T18:17:08;158368.41;;;16.28
60936;BMP280;46804;51.786;19.520;2023-06-14T18:21:09;158355.53;;;16.23
60936;BMP280;46804;51.786;19.520;2023-06-14T18:25:10;158314.25;;;16.07
60936;BMP280;46804;51.786;19.520;2023-06-14T18:29:10;158324.53;;;16.11
60936;BMP280;46804;51.786;19.520;2023-06-14T18:33:11;158291.03;;;15.98
60936;BMP280;46804;51.786;19.520;2023-06-14T18:37:13;158240.81;;;15.79
60936;BMP280;46804;51.786;19.520;2023-06-14T18:41:13;158235.66;;;15.77
60936;BMP280;46804;51.786;19.520;2023-06-14T18:45:14;158221.47;;;15.72
60936;BMP280;46804;51.786;19.520;2023-06-14T18:49:15;158182.81;;;15.57
60936;BMP280;46804;51.786;19.520;2023-06-14T18:53:16;158149.38;;;15.44
60936;BMP280;46804;51.786;19.520;2023-06-14T18:57:17;158154.47;;;15.46
60936;BMP280;46804;51.786;19.520;2023-06-14T19:01:17;158145.50;;;15.43
60936;BMP280;46804;51.786;19.520;2023-06-14T19:05:18;158104.31;;;15.27
60936;BMP280;46804;51.786;19.520;2023-06-14T19:09:19;158090.13;;;15.22
60936;BMP280;46804;51.786;19.520;2023-06-14T19:13:20;158052.75;;;15.07
60936;BMP280;46804;51.786;19.520;2023-06-14T19:17:21;158015.41;;;14.93
60936;BMP280;46804;51.786;19.520;2023-06-14T19:21:22;158001.22;;;14.88
60936;BMP280;46804;51.786;19.520;2023-06-14T19:25:22;158016.66;;;14.93
60936;BMP280;46804;51.786;19.520;2023-06-14T19:29:30;158012.84;;;14.92
60936;BMP280;46804;51.786;19.520;2023-06-14T19:33:33;157975.50;;;14.78
60936;BMP280;46804;51.786;19.520;2023-06-14T19:37:34;157990.94;;;14.84
60936;BMP280;46804;51.786;19.520;2023-06-14T19:41:36;157980.63;;;14.80
60936;BMP280;46804;51.786;19.520;2023-06-14T19:45:37;157970.34;;;14.76
60936;BMP280;46804;51.786;19.520;2023-06-14T19:49:38;157960.03;;;14.72
60936;BMP280;46804;51.786;19.520;2023-06-14T19:53:39;157972.94;;;14.77
60936;BMP280;46804;51.786;19.520;2023-06-14T19:57:40;157947.16;;;14.67
60936;BMP280;46804;51.786;19.520;2023-06-14T20:01:41;157931.72;;;14.61
60936;BMP280;46804;51.786;19.520;2023-06-14T20:05:42;157909.81;;;14.53
60936;BMP280;46804;51.786;19.520;2023-06-14T20:09:42;157926.56;;;14.59
60936;BMP280;46804;51.786;19.520;2023-06-14T20:13:43;157908.53;;;14.52
60936;BMP280;46804;51.786;19.520;2023-06-14T20:17:44;157903.38;;;14.50
60936;BMP280;46804;51.786;19.520;2023-06-14T20:21:46;157898.25;;;14.48
60936;BMP280;46804;51.786;19.520;2023-06-14T20:25:47;157890.53;;;14.45
60936;BMP280;46804;51.786;19.520;2023-06-14T20:29:48;157853.19;;;14.31
60936;BMP280;46804;51.786;19.520;2023-06-14T20:33:49;157848.09;;;14.29
60936;BMP280;46804;51.786;19.520;2023-06-14T20:37:51;157812.03;;;14.15
60936;BMP280;46804;51.786;19.520;2023-06-14T20:41:52;157826.22;;;14.21
60936;BMP280;46804;51.786;19.520;2023-06-14T20:45:57;157823.59;;;14.20
60936;BMP280;46804;51.786;19.520;2023-06-14T20:49:57;157805.59;;;14.13
60936;BMP280;46804;51.786;19.520;2023-06-14T20:53:58;157792.75;;;14.08
60936;BMP280;46804;51.786;19.520;2023-06-14T20:57:59;157781.16;;;14.03
60936;BMP280;46804;51.786;19.520;2023-06-14T21:02:00;157761.78;;;13.96
60936;BMP280;46804;51.786;19.520;2023-06-14T21:06:00;157747.66;;;13.91
60936;BMP280;46804;51.786;19.520;2023-06-14T21:10:04;157728.34;;;13.83
60936;BMP280;46804;51.786;19.520;2023-06-14T21:14:08;157739.97;;;13.88
60936;BMP280;46804;51.786;19.520;2023-06-14T21:18:08;157737.38;;;13.87
60936;BMP280;46804;51.786;19.520;2023-06-14T21:22:11;157723.25;;;13.81
60936;BMP280;46804;51.786;19.520;2023-06-14T21:26:12;157720.66;;;13.80
60936;BMP280;46804;51.786;19.520;2023-06-14T21:30:16;157732.22;;;13.85
60936;BMP280;46804;51.786;19.520;2023-06-14T21:34:17;157728.34;;;13.83
60936;BMP280;46804;51.786;19.520;2023-06-14T21:38:18;157727.06;;;13.83
60936;BMP280;46804;51.786;19.520;2023-06-14T21:42:18;157705.19;;;13.74
60936;BMP280;46804;51.786;19.520;2023-06-14T21:46:19;157685.91;;;13.67
60936;BMP280;46804;51.786;19.520;2023-06-14T21:50:20;157666.66;;;13.59
60936;BMP280;46804;51.786;19.520;2023-06-14T21:54:21;157679.50;;;13.64
60936;BMP280;46804;51.786;19.520;2023-06-14T21:58:21;157687.19;;;13.67
60936;BMP280;46804;51.786;19.520;2023-06-14T22:02:22;157666.66;;;13.59
60936;BMP280;46804;51.786;19.520;2023-06-14T22:06:23;157606.19;;;13.36
60936;BMP280;46804;51.786;19.520;2023-06-14T22:10:23;157649.91;;;13.53
60936;BMP280;46804;51.786;19.520;2023-06-14T22:14:24;157666.66;;;13.59
60936;BMP280;46804;51.786;19.520;2023-06-14T22:18:25;157670.47;;;13.61
60936;BMP280;46804;51.786;19.520;2023-06-14T22:22:26;157667.91;;;13.60
60936;BMP280;46804;51.786;19.520;2023-06-14T22:26:29;157669.19;;;13.60
60936;BMP280;46804;51.786;19.520;2023-06-14T22:30:34;157678.22;;;13.64
60936;BMP280;46804;51.786;19.520;2023-06-14T22:34:36;157678.22;;;13.64
60936;BMP280;46804;51.786;19.520;2023-06-14T22:38:39;157682.03;;;13.65